createdAt,value
2022-09-22T00:01:15.245Z,9.20
2022-09-22T00:03:43.838Z,9.20
2022-09-22T00:06:13.292Z,9.10
2022-09-22T00:08:42.270Z,9.10
2022-09-22T00:11:17.427Z,9.10
2022-09-22T00:13:51.090Z,9.10
2022-09-22T00:16:23.005Z,9.10
2022-09-22T00:18:50.016Z,9.10
2022-09-22T00:21:19.015Z,9.00
2022-09-22T00:23:47.173Z,9.00
2022-09-22T00:26:16.881Z,9.00
2022-09-22T00:28:45.272Z,9.00
2022-09-22T00:31:18.361Z,9.00
2022-09-22T00:33:46.457Z,8.90
2022-09-22T00:36:14.692Z,8.90
2022-09-22T00:38:42.489Z,8.90
2022-09-22T00:41:16.653Z,8.90
2022-09-22T00:43:47.014Z,8.90
2022-09-22T00:46:16.809Z,8.90
2022-09-22T00:48:53.143Z,8.90
2022-09-22T00:51:23.092Z,8.80
2022-09-22T00:53:50.107Z,8.80
2022-09-22T00:56:21.495Z,8.80
2022-09-22T00:58:57.485Z,8.80
2022-09-22T01:01:24.412Z,8.80
2022-09-22T01:03:51.319Z,8.80
2022-09-22T01:06:21.226Z,8.90
2022-09-22T01:08:47.929Z,8.80
2022-09-22T01:11:15.575Z,8.80
2022-09-22T01:14:07.290Z,8.80
2022-09-22T01:16:46.523Z,8.80
2022-09-22T01:19:42.616Z,8.80
2022-09-22T01:22:55.767Z,8.80
2022-09-22T01:25:47.537Z,8.80
2022-09-22T01:28:26.414Z,8.80
2022-09-22T01:31:00.357Z,8.80
2022-09-22T01:33:39.617Z,8.80
2022-09-22T01:36:14.922Z,8.80
2022-09-22T01:38:56.787Z,8.80
2022-09-22T01:41:51.827Z,8.70
2022-09-22T01:44:34.938Z,8.70
2022-09-22T01:47:22.754Z,8.70
2022-09-22T01:49:56.384Z,8.70
2022-09-22T01:52:27.108Z,8.60
2022-09-22T01:55:01.042Z,8.60
2022-09-22T01:57:47.762Z,8.60
2022-09-22T02:00:15.160Z,8.60
2022-09-22T02:02:47.574Z,8.60
2022-09-22T02:05:20.190Z,8.60
2022-09-22T02:07:53.263Z,8.50
2022-09-22T02:10:24.768Z,8.50
2022-09-22T02:12:52.153Z,8.50
2022-09-22T02:15:38.055Z,8.50
2022-09-22T02:18:13.553Z,8.40
2022-09-22T02:20:40.727Z,8.40
2022-09-22T02:23:08.080Z,8.40
2022-09-22T02:25:35.226Z,8.40
2022-09-22T02:28:02.053Z,8.40
2022-09-22T02:30:28.811Z,8.40
2022-09-22T02:32:56.668Z,8.30
2022-09-22T02:35:26.698Z,8.30
2022-09-22T02:38:03.839Z,8.30
2022-09-22T02:40:31.981Z,8.30
2022-09-22T02:43:10.684Z,8.30
2022-09-22T02:46:06.847Z,8.30
2022-09-22T02:48:39.185Z,8.30
2022-09-22T02:51:06.483Z,8.30
2022-09-22T02:53:34.334Z,8.30
2022-09-22T02:56:01.782Z,8.30
2022-09-22T02:58:28.442Z,8.30
2022-09-22T03:00:55.151Z,8.30
2022-09-22T03:03:21.859Z,8.30
2022-09-22T03:05:48.554Z,8.30
2022-09-22T03:08:15.253Z,8.30
2022-09-22T03:10:42.070Z,8.30
2022-09-22T03:13:16.312Z,8.30
2022-09-22T03:15:45.222Z,8.30
2022-09-22T03:18:12.158Z,8.20
2022-09-22T03:20:39.062Z,8.20
2022-09-22T03:23:05.907Z,8.20
2022-09-22T03:25:32.663Z,8.20
2022-09-22T03:27:59.471Z,8.20
2022-09-22T03:30:26.181Z,8.20
2022-09-22T03:32:52.892Z,8.20
2022-09-22T03:35:19.635Z,8.20
2022-09-22T03:37:47.851Z,8.20
2022-09-22T03:40:14.784Z,8.10
2022-09-22T03:42:41.559Z,8.10
2022-09-22T03:45:09.504Z,8.10
2022-09-22T03:47:36.145Z,8.10
2022-09-22T03:50:02.993Z,8.10
2022-09-22T03:52:29.714Z,8.10
2022-09-22T03:54:56.386Z,8.10
2022-09-22T03:57:23.104Z,8.10
2022-09-22T03:59:49.962Z,8.10
2022-09-22T04:02:16.947Z,8.00
2022-09-22T04:04:43.775Z,8.00
2022-09-22T04:07:10.435Z,8.00
2022-09-22T04:09:37.107Z,8.00
2022-09-22T04:12:04.055Z,8.00
2022-09-22T04:14:30.807Z,8.00
2022-09-22T04:16:57.518Z,8.00
2022-09-22T04:19:24.490Z,8.00
2022-09-22T04:21:56.838Z,8.00
2022-09-22T04:24:24.531Z,8.00
2022-09-22T04:27:15.525Z,8.00
2022-09-22T04:29:38.345Z,7.90
2022-09-22T04:32:05.437Z,7.90
2022-09-22T04:34:32.159Z,7.90
2022-09-22T04:36:58.963Z,7.90
2022-09-22T04:39:25.748Z,7.90
2022-09-22T04:41:52.470Z,7.80
2022-09-22T04:44:19.226Z,7.80
2022-09-22T04:46:46.321Z,7.80
2022-09-22T04:49:13.819Z,7.80
2022-09-22T04:51:40.626Z,7.80
2022-09-22T04:54:07.756Z,7.80
2022-09-22T04:56:34.463Z,7.80
2022-09-22T04:59:01.167Z,7.80
2022-09-22T05:01:28.368Z,7.80
2022-09-22T05:03:55.120Z,7.80
2022-09-22T05:06:21.766Z,7.80
2022-09-22T05:08:48.669Z,7.80
2022-09-22T05:11:15.481Z,7.80
2022-09-22T05:13:42.173Z,7.80
2022-09-22T05:16:09.253Z,7.80
2022-09-22T05:18:36.045Z,7.80
2022-09-22T05:21:02.787Z,7.80
2022-09-22T05:23:30.042Z,7.80
2022-09-22T05:25:56.938Z,7.80
2022-09-22T05:28:24.154Z,7.80
2022-09-22T05:30:51.629Z,7.80
2022-09-22T05:33:18.816Z,7.80
2022-09-22T05:35:45.566Z,7.80
2022-09-22T05:38:12.308Z,7.90
2022-09-22T05:40:39.091Z,7.90
2022-09-22T05:43:05.886Z,7.90
2022-09-22T05:45:32.648Z,7.90
2022-09-22T05:47:59.495Z,7.90
2022-09-22T05:50:26.199Z,7.90
2022-09-22T05:53:06.335Z,8.00
2022-09-22T05:55:33.472Z,8.00
2022-09-22T05:58:00.671Z,8.00
2022-09-22T06:00:27.818Z,8.10
2022-09-22T06:02:54.998Z,8.10
2022-09-22T06:05:21.870Z,8.10
2022-09-22T06:08:00.779Z,8.20
2022-09-22T06:10:28.213Z,8.20
2022-09-22T06:12:59.427Z,8.30
2022-09-22T06:15:26.720Z,8.30
2022-09-22T06:17:53.404Z,8.40
2022-09-22T06:20:20.285Z,8.40
2022-09-22T06:22:47.359Z,8.50
2022-09-22T06:25:14.068Z,8.60
2022-09-22T06:27:40.768Z,8.60
2022-09-22T06:30:11.134Z,8.70
2022-09-22T06:32:43.672Z,8.70
2022-09-22T06:35:11.376Z,8.80
2022-09-22T06:37:40.743Z,8.80
2022-09-22T06:40:08.612Z,8.90
2022-09-22T06:42:36.063Z,9.00
2022-09-22T06:45:05.101Z,9.10
2022-09-22T06:47:32.929Z,9.20
2022-09-22T06:50:02.271Z,9.30
2022-09-22T06:52:29.022Z,9.40
2022-09-22T06:54:58.559Z,9.50
2022-09-22T06:57:27.943Z,9.60
2022-09-22T06:59:54.723Z,9.70
2022-09-22T07:02:24.229Z,9.90
2022-09-22T07:04:52.215Z,10.00
2022-09-22T07:07:18.946Z,10.10
2022-09-22T07:09:46.197Z,10.20
2022-09-22T07:12:12.957Z,10.40
2022-09-22T07:14:39.661Z,10.50
2022-09-22T07:17:06.565Z,10.60
2022-09-22T07:19:36.498Z,10.80
2022-09-22T07:22:03.445Z,11.00
2022-09-22T07:24:30.151Z,11.10
2022-09-22T07:26:56.827Z,11.20
2022-09-22T07:29:23.507Z,11.40
2022-09-22T07:31:51.209Z,11.60
2022-09-22T07:34:18.677Z,11.70
2022-09-22T07:36:45.671Z,11.80
2022-09-22T07:39:12.595Z,12.00
2022-09-22T07:41:42.999Z,12.10
2022-09-22T07:44:31.002Z,12.30
2022-09-22T07:46:58.124Z,12.40
2022-09-22T07:49:24.940Z,12.50
2022-09-22T07:51:54.940Z,12.50
2022-09-22T07:54:23.231Z,12.60
2022-09-22T07:56:51.990Z,12.60
2022-09-22T07:59:19.054Z,12.80
2022-09-22T08:01:47.547Z,12.90
2022-09-22T08:04:16.596Z,13.00
2022-09-22T08:06:44.110Z,13.10
2022-09-22T08:09:12.010Z,13.20
2022-09-22T08:11:39.349Z,13.30
2022-09-22T08:14:08.280Z,13.30
2022-09-22T08:16:36.933Z,13.40
2022-09-22T08:19:15.069Z,13.50
2022-09-22T08:21:48.880Z,13.60
2022-09-22T08:24:22.080Z,13.60
2022-09-22T08:26:50.458Z,13.60
2022-09-22T08:29:17.372Z,13.70
2022-09-22T08:31:46.918Z,13.70
2022-09-22T08:34:16.699Z,13.80
2022-09-22T08:36:48.695Z,13.90
2022-09-22T08:39:16.991Z,14.00
2022-09-22T08:41:56.815Z,14.00
2022-09-22T08:44:31.051Z,14.10
2022-09-22T08:47:00.455Z,14.20
2022-09-22T08:49:48.848Z,14.20
2022-09-22T08:52:18.613Z,14.30
2022-09-22T08:54:46.053Z,14.30
2022-09-22T08:57:29.391Z,14.40
2022-09-22T09:00:17.087Z,14.50
2022-09-22T09:03:17.959Z,14.60
2022-09-22T09:05:50.805Z,14.60
2022-09-22T09:09:05.472Z,14.70
2022-09-22T09:11:32.436Z,14.70
2022-09-22T09:14:04.334Z,14.70
2022-09-22T09:16:45.139Z,14.70
2022-09-22T09:19:47.274Z,14.70
2022-09-22T09:22:43.714Z,14.80
2022-09-22T09:25:36.565Z,14.90
2022-09-22T09:28:13.607Z,14.90
2022-09-22T09:30:51.204Z,14.90
2022-09-22T09:33:52.600Z,15.00
2022-09-22T09:36:22.770Z,15.00
2022-09-22T09:38:52.782Z,15.10
2022-09-22T09:41:25.070Z,15.20
2022-09-22T09:43:54.387Z,15.30
2022-09-22T09:46:36.790Z,15.30
2022-09-22T09:49:14.863Z,15.40
2022-09-22T09:51:44.723Z,15.40
2022-09-22T09:54:17.091Z,15.50
2022-09-22T09:57:06.201Z,15.50
2022-09-22T09:59:51.920Z,15.50
2022-09-22T10:02:22.198Z,15.60
2022-09-22T10:04:52.165Z,15.60
2022-09-22T10:07:21.838Z,15.70
2022-09-22T10:09:52.623Z,15.70
2022-09-22T10:12:30.831Z,15.70
2022-09-22T10:14:59.444Z,15.70
2022-09-22T10:17:40.541Z,15.60
2022-09-22T10:20:21.907Z,15.70
2022-09-22T10:22:49.410Z,15.70
2022-09-22T10:25:27.340Z,15.80
2022-09-22T10:28:09.746Z,15.90
2022-09-22T10:30:39.783Z,15.90
2022-09-22T10:33:22.833Z,15.90
2022-09-22T10:36:07.805Z,16.00
2022-09-22T10:38:42.679Z,16.10
2022-09-22T10:41:13.070Z,16.10
2022-09-22T10:47:26.906Z,16.20
2022-09-22T10:50:05.848Z,16.20
2022-09-22T10:52:57.491Z,16.30
2022-09-22T10:55:34.779Z,16.30
2022-09-22T10:58:17.548Z,16.30
2022-09-22T11:00:44.435Z,16.20
2022-09-22T11:03:22.999Z,16.10
2022-09-22T11:06:20.421Z,16.00
2022-09-22T11:09:31.556Z,16.00
2022-09-22T11:12:23.358Z,16.10
2022-09-22T11:15:08.143Z,16.10
2022-09-22T11:17:45.381Z,16.10
2022-09-22T11:20:37.195Z,16.10
2022-09-22T11:23:21.207Z,16.10
2022-09-22T11:25:51.379Z,16.20
2022-09-22T11:28:36.513Z,16.30
2022-09-22T11:31:03.330Z,16.40
2022-09-22T11:33:58.874Z,16.50
2022-09-22T11:36:28.331Z,16.60
2022-09-22T11:39:13.523Z,16.70
2022-09-22T11:41:42.203Z,16.80
2022-09-22T11:44:36.280Z,16.80
2022-09-22T11:47:05.740Z,16.90
2022-09-22T11:49:50.885Z,17.00
2022-09-22T11:52:33.770Z,17.00
2022-09-22T11:55:18.463Z,17.00
2022-09-22T11:57:49.775Z,17.00
2022-09-22T12:00:21.254Z,17.10
2022-09-22T12:03:02.408Z,17.20
2022-09-22T12:05:42.381Z,17.10
2022-09-22T12:08:13.730Z,17.10
2022-09-22T12:10:45.131Z,17.00
2022-09-22T12:13:21.381Z,17.00
2022-09-22T12:16:19.232Z,16.90
2022-09-22T12:18:52.414Z,16.90
2022-09-22T12:21:57.022Z,16.90
2022-09-22T12:24:24.742Z,16.90
2022-09-22T12:26:51.990Z,16.90
2022-09-22T12:29:25.338Z,16.90
2022-09-22T12:31:55.421Z,17.00
2022-09-22T12:34:28.015Z,17.00
2022-09-22T12:37:14.533Z,16.90
2022-09-22T12:39:46.812Z,16.90
2022-09-22T12:42:20.674Z,17.00
2022-09-22T12:44:59.203Z,17.00
2022-09-22T12:47:36.023Z,17.10
2022-09-22T12:50:07.116Z,17.10
2022-09-22T12:53:04.200Z,17.10
2022-09-22T12:55:40.215Z,17.20
2022-09-22T12:58:19.361Z,17.20
2022-09-22T13:00:46.573Z,17.20
2022-09-22T13:03:25.498Z,17.10
2022-09-22T13:06:19.962Z,17.00
2022-09-22T13:08:52.686Z,17.00
2022-09-22T13:11:20.044Z,16.90
2022-09-22T13:13:47.994Z,16.80
2022-09-22T13:16:14.670Z,16.80
2022-09-22T13:18:45.393Z,16.70
2022-09-22T13:21:12.014Z,16.70
2022-09-22T13:23:51.595Z,16.70
2022-09-22T13:26:38.859Z,16.70
2022-09-22T13:29:19.867Z,16.70
2022-09-22T13:31:51.723Z,16.70
2022-09-22T13:34:35.525Z,16.70
2022-09-22T13:37:08.773Z,16.70
2022-09-22T13:39:41.235Z,16.70
2022-09-22T13:42:17.034Z,16.70
2022-09-22T13:44:47.649Z,16.70
2022-09-22T13:47:20.520Z,16.60
2022-09-22T13:50:01.742Z,16.60
2022-09-22T13:52:31.265Z,16.70
2022-09-22T13:55:00.831Z,16.60
2022-09-22T13:57:30.193Z,16.60
2022-09-22T13:59:58.770Z,16.60
2022-09-22T14:02:30.658Z,16.50
2022-09-22T14:05:05.598Z,16.50
2022-09-22T14:07:38.259Z,16.50
2022-09-22T14:10:16.670Z,16.50
2022-09-22T14:12:43.856Z,16.50
2022-09-22T14:15:43.529Z,16.50
2022-09-22T14:18:29.348Z,16.40
2022-09-22T14:20:57.551Z,16.30
2022-09-22T14:23:31.895Z,16.30
2022-09-22T14:26:01.852Z,16.30
2022-09-22T14:28:35.201Z,16.20
2022-09-22T14:31:02.442Z,16.20
2022-09-22T14:33:31.080Z,16.10
2022-09-22T14:36:03.071Z,16.10
2022-09-22T14:38:30.520Z,16.10
2022-09-22T14:41:02.836Z,16.10
2022-09-22T14:43:41.886Z,16.10
2022-09-22T14:46:34.719Z,16.00
2022-09-22T14:49:50.643Z,16.00
2022-09-22T14:52:28.127Z,15.90
2022-09-22T14:54:56.484Z,15.90
2022-09-22T14:57:23.409Z,15.90
2022-09-22T15:00:12.941Z,15.90
2022-09-22T15:02:42.041Z,16.00
2022-09-22T15:05:11.747Z,15.90
2022-09-22T15:07:48.444Z,15.90
2022-09-22T15:10:35.174Z,15.90
2022-09-22T15:13:26.984Z,15.80
2022-09-22T15:15:53.899Z,15.80
2022-09-22T15:18:20.603Z,15.70
2022-09-22T15:20:51.695Z,15.70
2022-09-22T15:23:20.793Z,15.60
2022-09-22T15:25:47.700Z,15.60
2022-09-22T15:28:19.771Z,15.60
2022-09-22T15:30:48.092Z,15.60
2022-09-22T15:33:16.124Z,15.60
2022-09-22T15:35:44.955Z,15.50
2022-09-22T15:38:19.187Z,15.50
2022-09-22T15:40:47.598Z,15.40
2022-09-22T15:43:20.655Z,15.40
2022-09-22T15:45:56.150Z,15.40
2022-09-22T15:48:41.310Z,15.40
2022-09-22T15:51:13.424Z,15.40
2022-09-22T15:53:41.646Z,15.40
2022-09-22T15:56:14.015Z,15.40
2022-09-22T15:58:43.481Z,15.30
2022-09-22T16:01:10.600Z,15.30
2022-09-22T16:03:41.213Z,15.30
2022-09-22T16:06:11.919Z,15.20
2022-09-22T16:08:51.394Z,15.20
2022-09-22T16:11:32.157Z,15.10
2022-09-22T16:14:06.358Z,15.10
2022-09-22T16:16:35.625Z,15.10
2022-09-22T16:19:02.586Z,15.00
2022-09-22T16:21:34.115Z,15.00
2022-09-22T16:24:05.101Z,14.90
2022-09-22T16:26:32.534Z,14.90
2022-09-22T16:28:59.780Z,14.80
2022-09-22T16:31:27.177Z,14.80
2022-09-22T16:33:55.215Z,14.80
2022-09-22T16:36:23.082Z,14.80
2022-09-22T16:38:49.870Z,14.70
2022-09-22T16:41:20.610Z,14.60
2022-09-22T16:43:48.450Z,14.60
2022-09-22T16:46:28.214Z,14.60
2022-09-22T16:49:00.372Z,14.50
2022-09-22T16:51:28.094Z,14.50
2022-09-22T16:53:56.302Z,14.40
2022-09-22T16:56:25.765Z,14.40
2022-09-22T16:58:53.111Z,14.30
2022-09-22T17:01:20.438Z,14.30
2022-09-22T17:03:49.410Z,14.20
2022-09-22T17:06:18.342Z,14.10
2022-09-22T17:08:45.889Z,14.10
2022-09-22T17:11:17.331Z,14.00
2022-09-22T17:13:44.330Z,13.90
2022-09-22T17:16:21.185Z,13.80
2022-09-22T17:18:50.568Z,13.70
2022-09-22T17:21:21.859Z,13.60
2022-09-22T17:23:50.055Z,13.50
2022-09-22T17:26:18.298Z,13.40
2022-09-22T17:28:45.164Z,13.30
2022-09-22T17:31:12.444Z,13.20
2022-09-22T17:33:51.279Z,13.00
2022-09-22T17:36:21.107Z,12.90
2022-09-22T17:38:50.643Z,12.80
2022-09-22T17:41:26.125Z,12.80
2022-09-22T17:43:57.570Z,12.70
2022-09-22T17:46:25.850Z,12.60
2022-09-22T17:49:11.722Z,12.50
2022-09-22T17:52:08.599Z,12.40
2022-09-22T17:54:57.920Z,12.40
2022-09-22T17:57:29.394Z,12.30
2022-09-22T17:59:57.230Z,12.20
2022-09-22T18:02:29.054Z,12.20
2022-09-22T18:04:55.753Z,12.20
2022-09-22T18:07:24.636Z,12.10
2022-09-22T18:09:52.366Z,12.10
2022-09-22T18:12:21.490Z,12.10
2022-09-22T18:14:50.140Z,12.10
2022-09-22T18:17:19.479Z,12.20
2022-09-22T18:19:46.386Z,12.10
2022-09-22T18:22:16.999Z,12.10
2022-09-22T18:24:45.235Z,12.10
2022-09-22T18:27:13.239Z,12.10
2022-09-22T18:29:39.942Z,12.10
2022-09-22T18:32:06.736Z,12.10
2022-09-22T18:34:33.519Z,12.10
2022-09-22T18:37:02.032Z,12.10
2022-09-22T18:39:29.238Z,12.10
2022-09-22T18:41:56.388Z,12.10
2022-09-22T18:44:23.821Z,12.10
2022-09-22T18:46:50.824Z,12.10
2022-09-22T18:49:17.586Z,12.10
2022-09-22T18:51:49.581Z,12.10
2022-09-22T18:54:19.347Z,12.10
2022-09-22T18:56:47.479Z,12.10
2022-09-22T18:59:23.946Z,12.10
2022-09-22T19:01:51.370Z,12.10
2022-09-22T19:04:20.778Z,12.10
2022-09-22T19:07:08.053Z,12.10
2022-09-22T19:09:35.044Z,12.10
2022-09-22T19:12:02.535Z,12.10
2022-09-22T19:14:36.233Z,12.10
2022-09-22T19:17:04.009Z,12.10
2022-09-22T19:19:30.822Z,12.00
2022-09-22T19:21:57.552Z,12.00
2022-09-22T19:24:25.052Z,12.00
2022-09-22T19:26:57.757Z,12.00
2022-09-22T19:29:24.429Z,12.00
2022-09-22T19:31:51.189Z,12.00
2022-09-22T19:34:17.956Z,12.00
2022-09-22T19:36:44.675Z,12.00
2022-09-22T19:39:11.361Z,12.00
2022-09-22T19:41:40.711Z,12.00
2022-09-22T19:44:09.416Z,12.00
2022-09-22T19:46:36.489Z,12.00
2022-09-22T19:49:03.347Z,12.00
2022-09-22T19:51:30.047Z,12.00
2022-09-22T19:53:56.776Z,11.90
2022-09-22T19:56:23.445Z,11.90
2022-09-22T19:58:51.321Z,11.90
2022-09-22T20:01:44.377Z,12.00
2022-09-22T20:04:17.810Z,11.90
2022-09-22T20:06:45.716Z,11.90
2022-09-22T20:09:12.557Z,11.90
2022-09-22T20:11:44.571Z,11.90
2022-09-22T20:14:27.032Z,11.90
2022-09-22T20:17:05.671Z,11.90
2022-09-22T20:19:34.312Z,11.80
2022-09-22T20:22:25.232Z,11.80
2022-09-22T20:24:54.678Z,11.80
2022-09-22T20:27:30.255Z,11.80
2022-09-22T20:29:57.790Z,11.80
2022-09-22T20:32:29.039Z,11.80
2022-09-22T20:34:55.925Z,11.70
2022-09-22T20:37:23.525Z,11.70
2022-09-22T20:39:50.502Z,11.70
2022-09-22T20:42:17.477Z,11.70
2022-09-22T20:44:44.521Z,11.70
2022-09-22T20:47:16.297Z,11.60
2022-09-22T20:49:44.352Z,11.60
2022-09-22T20:52:19.707Z,11.60
2022-09-22T20:54:46.521Z,11.60
2022-09-22T20:57:14.230Z,11.60
2022-09-22T20:59:45.398Z,11.60
2022-09-22T21:02:12.739Z,11.60
2022-09-22T21:04:39.729Z,11.50
2022-09-22T21:07:06.766Z,11.50
2022-09-22T21:10:11.930Z,11.50
2022-09-22T21:12:39.785Z,11.50
2022-09-22T21:15:06.748Z,11.50
2022-09-22T21:17:35.056Z,11.40
2022-09-22T21:20:02.027Z,11.40
2022-09-22T21:22:28.833Z,11.40
2022-09-22T21:24:56.308Z,11.40
2022-09-22T21:27:23.712Z,11.30
2022-09-22T21:29:50.407Z,11.40
2022-09-22T21:32:17.472Z,11.30
2022-09-22T21:34:44.170Z,11.30
2022-09-22T21:37:10.867Z,11.40
2022-09-22T21:39:37.585Z,11.40
2022-09-22T21:42:04.346Z,11.30
2022-09-22T21:44:31.023Z,11.30
2022-09-22T21:46:57.853Z,11.30
2022-09-22T21:49:24.844Z,11.30
2022-09-22T21:51:51.565Z,11.30
2022-09-22T21:54:18.910Z,11.30
2022-09-22T21:56:45.801Z,11.30
2022-09-22T21:59:13.271Z,11.30
2022-09-22T22:01:41.825Z,11.30
2022-09-22T22:04:10.003Z,11.30
2022-09-22T22:06:42.899Z,11.20
2022-09-22T22:09:17.658Z,11.20
2022-09-22T22:11:49.144Z,11.20
2022-09-22T22:14:19.169Z,11.20
2022-09-22T22:16:48.003Z,11.20
2022-09-22T22:19:17.664Z,11.20
2022-09-22T22:21:46.100Z,11.10
2022-09-22T22:24:33.037Z,11.20
2022-09-22T22:27:05.713Z,11.10
2022-09-22T22:29:34.929Z,11.10
2022-09-22T22:32:05.619Z,11.10
2022-09-22T22:34:32.341Z,11.00
2022-09-22T22:36:59.542Z,11.00
2022-09-22T22:39:26.932Z,11.10
2022-09-22T22:41:55.206Z,11.00
2022-09-22T22:44:22.698Z,11.00
2022-09-22T22:46:49.514Z,11.00
2022-09-22T22:49:16.209Z,11.10
2022-09-22T22:51:43.360Z,11.00
2022-09-22T22:54:11.539Z,11.00
2022-09-22T22:56:42.151Z,11.10
2022-09-22T22:59:09.849Z,11.10
2022-09-22T23:01:36.861Z,11.00
2022-09-22T23:04:05.940Z,11.00
2022-09-22T23:06:33.419Z,11.00
2022-09-22T23:09:00.334Z,11.00
2022-09-22T23:11:29.873Z,11.00
2022-09-22T23:14:03.060Z,10.90
2022-09-22T23:16:35.301Z,10.90
2022-09-22T23:19:06.107Z,10.90
2022-09-22T23:21:32.986Z,10.80
2022-09-22T23:24:01.036Z,10.80
2022-09-22T23:26:29.065Z,10.80
2022-09-22T23:28:58.170Z,10.80
2022-09-22T23:31:25.499Z,10.80
2022-09-22T23:33:52.647Z,10.80
2022-09-22T23:36:22.423Z,10.80
2022-09-22T23:38:53.819Z,10.80
2022-09-22T23:41:20.735Z,10.70
2022-09-22T23:43:47.441Z,10.70
2022-09-22T23:46:14.316Z,10.70
2022-09-22T23:48:41.148Z,10.70
2022-09-22T23:51:07.827Z,10.70
2022-09-22T23:53:35.812Z,10.70
2022-09-22T23:56:03.956Z,10.70
2022-09-22T23:58:31.077Z,10.70
